Pagina principale
METAR-TAF:

METAR-TAF

Aeroporti :

Masjed Soleyman, Iran

latitudine: 31-59N, longitudine: 049-16E, altezza: 372 m

Osservazione

Il bollettino è stato emesso 2 ore e 1 minuti fa, alle 04:51 UTC
Vento 2 kt da nord/nord-ovest
Temperature 39°C
Umidità 8%
Pressione 999 hPa
Visibilità 10 km o più
nessuna nube inferiore a 1500 m e nessun cumulonembo

METAR: OIAI 270451Z 33002KT CAVOK 39/M02 Q0999

Ora: 11:22 (06:52 UTC)


TAF: mancante

Osservazioni e previsioni meteorologiche di più di 4000 aeroporti (messaggi METAR e TAF).

Le stazioni disponibili sono rappresentate dai dischi gialli e rossi sulla carta.

Puntare il mouse per vedere il nome della stazione.

Clicca sopra per visualizzare le osservazioni e previsioni meteorologiche.

Per cambiare la mappa : fare clic sui pulsanti verdi con una croce nera per ingrandire, il pulsante verde con un trattino per diminuire, o sulla freccia verde per le mappe adiacenti.


METAR-TAF: